Terminal Aerodrome Forecast
Issued by NWS

Home | Current Version | Previous Version | Text Only | Print | Product List | Glossary On
Versions: 1 2 3 4 5 6 7 8 9 10 11 12 13 14 15 16
247
FTUS42 KTAE 282107 AAA
TAFDHN
TAF AMD
KDHN 282107Z 2821/2918 22008KT P6SM SCT040
     FM290000 23006KT P6SM SCT040
     FM290600 24004KT P6SM BKN008
     FM291600 24007KT P6SM BKN035=

USA.gov is the U.S. government's official web portal to all federal, state and local government web resources and services.